Time;durP1;ratioP1;P1;durP2;ratioP2;P2;SDS_P1;SDS_P2;PMS_P1;PMS_P2;Temp;Humidity;BMP_temperature;BMP_pressure;BME280_temperature;BME280_humidity;BME280_pressure;Samples;Min_cycle;Max_cycle;Signal;HPM_P1;HPM_P2
2023/03/08 00:01:32;;;;;;;;;19.00;14.75;;;;;9.15;64.68;99432.53;5011494;28;45423;-69
2023/03/08 00:03:58;;;;;;;;;19.50;14.75;;;;;9.17;64.04;99435.19;4999820;28;45555;-69
2023/03/08 00:06:25;;;;;;;;;29.75;15.25;;;;;9.23;64.42;99451.25;5004355;28;45483;-69
2023/03/08 00:08:57;;;;;;;;;23.50;20.75;;;;;9.13;64.06;99420.06;5012422;28;45344;-69
2023/03/08 00:11:24;;;;;;;;;24.75;16.00;;;;;9.30;63.38;99450.44;5010726;28;45184;-68
2023/03/08 00:13:49;;;;;;;;;23.00;17.75;;;;;9.16;64.10;99413.00;5012724;28;45566;-69
2023/03/08 00:16:15;;;;;;;;;24.25;21.25;;;;;9.15;64.29;99421.88;5012935;28;45082;-69
2023/03/08 00:18:40;;;;;;;;;22.00;16.50;;;;;9.13;64.35;99423.63;5011790;28;45026;-69
2023/03/08 00:21:09;;;;;;;;;23.00;20.25;;;;;9.16;63.78;99423.66;4995964;28;45246;-69
2023/03/08 00:23:34;;;;;;;;;17.50;15.00;;;;;9.23;64.72;99437.94;5014012;28;47747;-69
2023/03/08 00:26:00;;;;;;;;;21.50;17.25;;;;;9.18;63.94;99418.34;5012285;28;45087;-70
2023/03/08 00:28:26;;;;;;;;;21.75;19.50;;;;;9.23;65.31;99429.94;5014039;28;45375;-69
2023/03/08 00:31:03;;;;;;;;;26.00;17.50;;;;;9.25;64.32;99420.19;5015192;28;45027;-69
2023/03/08 00:33:29;;;;;;;;;24.75;16.75;;;;;8.99;64.88;99369.28;5013409;28;45694;-69
2023/03/08 00:36:00;;;;;;;;;24.25;20.50;;;;;9.22;65.25;99407.75;4995833;28;45078;-69
2023/03/08 00:38:26;;;;;;;;;20.00;14.00;;;;;9.15;64.74;99400.53;4994962;28;44981;-69
2023/03/08 00:40:52;;;;;;;;;21.00;18.50;;;;;9.12;64.75;99392.50;5008964;28;45237;-68
2023/03/08 00:43:18;;;;;;;;;15.00;14.25;;;;;9.14;64.12;99393.44;5011584;28;45809;-69
2023/03/08 00:45:43;;;;;;;;;20.00;15.50;;;;;9.14;64.63;99382.78;5010402;28;45164;-70
2023/03/08 00:48:09;;;;;;;;;22.00;17.75;;;;;9.10;64.96;99366.75;5013323;28;45220;-69
2023/03/08 00:50:34;;;;;;;;;21.00;16.00;;;;;9.03;65.16;99363.13;5010108;28;45384;-69
2023/03/08 00:52:59;;;;;;;;;21.75;14.75;;;;;9.03;65.21;99350.69;5014235;28;50145;-69
2023/03/08 00:55:25;;;;;;;;;21.25;18.00;;;;;9.07;64.69;99340.97;5015612;28;45498;-69
2023/03/08 00:57:50;;;;;;;;;18.00;18.00;;;;;9.05;65.10;99334.72;5017514;28;45146;-69
2023/03/08 01:00:16;;;;;;;;;22.75;16.50;;;;;9.03;65.19;99336.50;5015197;28;45064;-69
2023/03/08 01:02:41;;;;;;;;;19.75;16.50;;;;;8.82;65.39;99307.88;4992218;28;46564;-69
2023/03/08 01:05:08;;;;;;;;;18.50;15.25;;;;;8.97;65.64;99321.31;5009618;28;45251;-69
2023/03/08 01:07:33;;;;;;;;;20.25;17.75;;;;;8.92;65.55;99316.84;5010773;28;44973;-69
2023/03/08 01:09:59;;;;;;;;;21.25;16.00;;;;;8.84;66.07;99287.47;5011609;28;44986;-69
2023/03/08 01:12:24;;;;;;;;;19.75;18.00;;;;;8.89;66.19;99283.06;5013448;28;45489;-69
2023/03/08 01:14:51;;;;;;;;;19.00;15.50;;;;;8.93;66.47;99276.03;5010162;28;45128;-69
2023/03/08 01:17:16;;;;;;;;;21.25;13.50;;;;;8.89;66.50;99277.75;5011507;28;45171;-69
2023/03/08 01:19:42;;;;;;;;;20.00;13.25;;;;;8.88;65.48;99280.41;5010506;28;45189;-69
2023/03/08 01:22:07;;;;;;;;;21.00;18.00;;;;;8.84;66.70;99279.47;5014890;28;45589;-69
2023/03/08 01:24:32;;;;;;;;;15.25;13.25;;;;;8.81;66.12;99260.78;5010304;28;45042;-70
2023/03/08 01:26:59;;;;;;;;;20.00;19.50;;;;;8.81;66.18;99271.44;5013735;28;45404;-69
2023/03/08 01:29:25;;;;;;;;;16.25;14.25;;;;;8.71;65.34;99237.63;5014929;28;45126;-67
2023/03/08 01:31:51;;;;;;;;;17.00;13.00;;;;;8.74;67.02;99245.66;5017267;28;45710;-69
2023/03/08 01:34:16;;;;;;;;;17.75;13.00;;;;;8.73;66.83;99239.44;5013132;28;45143;-70
2023/03/08 01:36:42;;;;;;;;;19.50;14.50;;;;;8.70;66.17;99228.75;5016339;28;44955;-69
2023/03/08 01:39:07;;;;;;;;;24.25;16.75;;;;;8.61;66.32;99210.94;5019296;28;45111;-69
2023/03/08 01:41:32;;;;;;;;;19.75;17.75;;;;;8.52;66.53;99181.56;5015158;28;45360;-71
2023/03/08 01:43:58;;;;;;;;;20.50;16.00;;;;;8.65;66.14;99212.75;5013497;28;45059;-69
2023/03/08 01:46:31;;;;;;;;;24.25;19.75;;;;;8.63;67.57;99202.97;5015689;28;45247;-69
2023/03/08 01:49:21;;;;;;;;;22.50;17.25;;;;;8.64;67.14;99210.94;5015118;28;45055;-69
2023/03/08 01:51:54;;;;;;;;;27.25;19.00;;;;;8.62;67.91;99201.19;5010752;28;45909;-68
2023/03/08 01:54:35;;;;;;;;;20.50;16.00;;;;;8.61;67.19;99199.38;5012840;28;45363;-70
2023/03/08 01:57:24;;;;;;;;;17.50;14.50;;;;;8.60;67.76;99190.50;5014802;28;45158;-69
2023/03/08 01:59:52;;;;;;;;;18.25;13.50;;;;;8.57;68.03;99185.16;5018291;28;45389;-68
2023/03/08 02:02:27;;;;;;;;;20.50;16.75;;;;;8.56;67.97;99183.34;4995049;28;47855;-69
2023/03/08 02:04:52;;;;;;;;;19.00;17.00;;;;;8.51;68.30;99174.44;5009035;28;45157;-69
2023/03/08 02:07:18;;;;;;;;;20.50;17.50;;;;;8.43;67.92;99163.75;5011969;28;48477;-69
2023/03/08 02:09:44;;;;;;;;;19.75;17.50;;;;;8.48;68.52;99167.34;5013414;28;45935;-69
2023/03/08 02:12:12;;;;;;;;;16.50;16.00;;;;;8.50;68.27;99162.03;5013688;28;45591;-70
2023/03/08 02:14:41;;;;;;;;;18.50;14.25;;;;;8.49;68.07;99157.56;5012920;28;44991;-70
2023/03/08 02:17:06;;;;;;;;;17.50;15.75;;;;;8.49;68.45;99152.25;5012422;28;45198;-70
2023/03/08 02:19:54;;;;;;;;;15.00;13.25;;;;;8.48;68.99;99150.50;5015791;28;45378;-68
2023/03/08 02:22:19;;;;;;;;;15.00;10.00;;;;;8.52;68.56;99136.31;5013688;28;45651;-70
2023/03/08 02:24:45;;;;;;;;;17.25;15.00;;;;;8.48;68.83;99122.09;4997017;28;45069;-69
2023/03/08 02:27:17;;;;;;;;;18.00;12.25;;;;;8.52;68.23;99120.34;5015753;28;45407;-70
2023/03/08 02:29:43;;;;;;;;;24.00;16.00;;;;;8.44;69.50;99100.75;5015009;28;45113;-70
2023/03/08 02:32:08;;;;;;;;;15.25;12.25;;;;;8.34;69.44;99072.25;4994750;28;47019;-68
2023/03/08 02:34:34;;;;;;;;;14.75;11.75;;;;;8.44;69.95;99085.66;5010826;28;45681;-68
2023/03/08 02:36:59;;;;;;;;;20.25;15.50;;;;;8.52;69.96;99092.84;5010728;28;45334;-70
2023/03/08 02:39:25;;;;;;;;;21.25;14.00;;;;;8.52;69.56;99071.56;5004286;28;45383;-69
2023/03/08 02:41:50;;;;;;;;;19.50;13.25;;;;;8.44;69.35;99059.06;5004217;28;49594;-69
2023/03/08 02:44:15;;;;;;;;;21.00;16.25;;;;;8.41;69.40;99056.34;4995127;28;55466;-70
2023/03/08 02:46:41;;;;;;;;;18.50;17.50;;;;;8.47;70.33;99056.41;4995000;28;45289;-69
2023/03/08 02:49:06;;;;;;;;;13.00;13.00;;;;;8.45;70.09;99044.88;5002134;28;45496;-70
2023/03/08 02:51:31;;;;;;;;;19.25;15.50;;;;;8.47;69.51;99050.22;5010344;28;46104;-69
2023/03/08 02:53:57;;;;;;;;;17.00;14.25;;;;;8.41;70.06;99031.50;5003719;28;45569;-71
2023/03/08 02:56:22;;;;;;;;;15.25;11.50;;;;;8.41;69.33;99023.53;5002762;28;45845;-71
2023/03/08 02:58:48;;;;;;;;;14.75;12.75;;;;;8.52;70.20;99023.63;4999218;28;45713;-69
2023/03/08 03:01:13;;;;;;;;;17.25;14.75;;;;;8.45;69.27;99007.63;4999264;28;46746;-69
2023/03/08 03:03:40;;;;;;;;;13.00;12.00;;;;;8.42;70.39;98980.94;5008722;28;45329;-69
2023/03/08 03:06:13;;;;;;;;;15.75;13.00;;;;;8.47;69.69;98981.91;5002704;28;45601;-69
2023/03/08 03:08:38;;;;;;;;;16.50;16.00;;;;;8.32;70.02;98957.84;5000287;28;45425;-70
2023/03/08 03:11:13;;;;;;;;;14.25;12.00;;;;;8.35;70.36;98971.16;5006637;28;70720;-70
2023/03/08 03:13:38;;;;;;;;;14.50;13.25;;;;;8.33;70.46;98948.94;5012288;28;45067;-69
2023/03/08 03:16:12;;;;;;;;;16.25;11.00;;;;;8.35;69.55;98951.63;4996287;28;45520;-69
2023/03/08 03:18:38;;;;;;;;;12.75;11.25;;;;;8.28;70.83;98930.31;4984593;28;45526;-69
2023/03/08 03:21:09;;;;;;;;;13.25;12.00;;;;;8.32;69.77;98936.53;5015058;28;45278;-69
2023/03/08 03:23:36;;;;;;;;;13.25;12.50;;;;;8.28;70.71;98921.44;5012328;28;45212;-69
2023/03/08 03:26:09;;;;;;;;;20.00;13.00;;;;;8.30;71.40;98930.34;4978569;28;45608;-69
2023/03/08 03:28:35;;;;;;;;;17.00;13.75;;;;;8.17;70.84;98909.84;5005872;28;45461;-70
2023/03/08 03:31:00;;;;;;;;;9.50;9.50;;;;;8.12;70.79;98885.88;4978097;28;47763;-69
2023/03/08 03:33:26;;;;;;;;;14.50;12.00;;;;;8.27;71.01;98890.41;4997516;28;45435;-69
2023/03/08 03:35:52;;;;;;;;;16.50;12.50;;;;;8.32;71.27;98875.34;5006671;28;45360;-69
2023/03/08 03:38:18;;;;;;;;;18.75;12.00;;;;;8.30;71.13;98870.03;5008264;28;45591;-69
2023/03/08 03:40:43;;;;;;;;;11.00;11.00;;;;;8.35;70.80;98874.47;5007041;28;45801;-70
2023/03/08 03:43:08;;;;;;;;;16.75;10.00;;;;;8.34;70.80;98868.25;5003586;28;45376;-69
2023/03/08 03:45:34;;;;;;;;;13.50;11.00;;;;;8.11;71.42;98805.19;5011677;28;45266;-70
2023/03/08 03:47:59;;;;;;;;;13.25;9.25;;;;;8.34;70.75;98844.31;5007274;28;45491;-69
2023/03/08 03:50:25;;;;;;;;;13.00;9.25;;;;;8.31;71.44;98825.66;5009269;28;45523;-69
2023/03/08 03:52:50;;;;;;;;;12.00;6.50;;;;;8.30;71.58;98810.59;5004453;28;45533;-69
2023/03/08 03:55:15;;;;;;;;;13.75;10.50;;;;;8.37;71.73;98811.53;5014745;28;45730;-69
2023/03/08 03:57:41;;;;;;;;;14.00;11.00;;;;;8.21;71.35;98795.47;5008653;28;45461;-69
2023/03/08 04:00:10;;;;;;;;;10.25;10.25;;;;;8.38;71.43;98811.53;5019582;28;45489;-69
2023/03/08 04:02:35;;;;;;;;;11.50;11.25;;;;;8.34;71.89;98798.19;5006826;28;45455;-67
2023/03/08 04:05:01;;;;;;;;;10.50;10.50;;;;;8.33;71.78;98799.06;4993861;28;56134;-68
2023/03/08 04:07:26;;;;;;;;;16.50;12.00;;;;;8.35;71.85;98797.28;4997633;28;45688;-69
2023/03/08 04:09:51;;;;;;;;;12.25;11.00;;;;;8.30;71.80;98786.66;5001070;28;51398;-70
2023/03/08 04:12:17;;;;;;;;;10.75;9.50;;;;;8.35;71.76;98786.66;5007032;28;45376;-69
2023/03/08 04:14:42;;;;;;;;;19.00;12.75;;;;;8.35;71.15;98795.56;5010253;28;45298;-69
2023/03/08 04:17:08;;;;;;;;;9.50;9.50;;;;;8.18;71.44;98757.34;5006920;28;45070;-69
2023/03/08 04:19:33;;;;;;;;;14.75;10.25;;;;;8.30;72.28;98765.38;5000002;28;45641;-70
2023/03/08 04:21:58;;;;;;;;;9.75;9.75;;;;;8.38;72.23;98782.25;4995585;28;45487;-69
2023/03/08 04:24:24;;;;;;;;;9.75;9.00;;;;;8.28;72.02;98768.03;5007673;28;45215;-69
2023/03/08 04:26:49;;;;;;;;;11.25;11.00;;;;;8.28;72.96;98749.41;5012840;28;45679;-69
2023/03/08 04:29:15;;;;;;;;;9.50;9.00;;;;;8.34;71.90;98753.84;5001716;28;45810;-70
2023/03/08 04:31:40;;;;;;;;;9.00;9.00;;;;;8.18;73.11;98720.97;5001478;28;45011;-68
2023/03/08 04:34:05;;;;;;;;;7.50;6.50;;;;;8.22;72.76;98714.78;5003219;28;45411;-69
2023/03/08 04:36:31;;;;;;;;;8.50;7.75;;;;;8.26;73.36;98703.28;5011373;28;45245;-68
2023/03/08 04:38:57;;;;;;;;;7.00;7.00;;;;;8.25;73.29;98701.50;5001358;28;46058;-69
2023/03/08 04:41:24;;;;;;;;;8.50;5.50;;;;;8.27;73.25;98712.16;4995781;28;45413;-69
2023/03/08 04:43:55;;;;;;;;;9.75;8.25;;;;;8.17;72.88;98695.28;4997121;28;45498;-69
2023/03/08 04:46:23;;;;;;;;;9.75;9.50;;;;;8.28;73.27;98697.94;5001186;28;45521;-69
2023/03/08 04:48:51;;;;;;;;;8.50;6.50;;;;;8.25;73.60;98713.91;5012394;28;45177;-69
2023/03/08 04:51:17;;;;;;;;;8.75;6.50;;;;;8.20;73.08;98683.75;5006732;28;45185;-69
2023/03/08 04:53:44;;;;;;;;;4.00;4.00;;;;;8.19;73.26;98690.84;5004407;28;45235;-69
2023/03/08 04:56:11;;;;;;;;;5.00;5.00;;;;;8.29;73.56;98697.06;5015348;28;44995;-69
2023/03/08 04:58:37;;;;;;;;;3.50;3.50;;;;;8.32;73.32;98683.78;4981290;28;47396;-69
2023/03/08 05:01:14;;;;;;;;;8.50;8.50;;;;;8.33;73.83;98672.25;5000927;28;45553;-68
2023/03/08 05:03:40;;;;;;;;;5.25;5.25;;;;;8.33;73.95;98679.34;4992329;28;45642;-68
2023/03/08 05:06:05;;;;;;;;;8.50;7.50;;;;;8.32;73.63;98686.44;4995465;28;45360;-67
2023/03/08 05:08:31;;;;;;;;;7.00;4.75;;;;;8.26;73.74;98687.31;5000947;28;45944;-68
2023/03/08 05:10:58;;;;;;;;;10.25;6.25;;;;;8.24;74.27;98673.13;4995323;28;45613;-69
2023/03/08 05:13:25;;;;;;;;;7.75;6.25;;;;;8.27;73.97;98677.56;4995634;28;45803;-69
2023/03/08 05:15:51;;;;;;;;;9.00;6.00;;;;;8.16;74.37;98658.03;4997942;28;45513;-69
2023/03/08 05:18:17;;;;;;;;;4.50;3.25;;;;;8.09;73.66;98641.19;4996667;28;46278;-69
2023/03/08 05:20:42;;;;;;;;;6.50;4.25;;;;;8.25;74.88;98658.03;5003697;28;45178;-69
2023/03/08 05:23:07;;;;;;;;;7.75;5.75;;;;;8.27;74.64;98645.66;5007176;28;46831;-70
2023/03/08 05:25:33;;;;;;;;;9.25;8.00;;;;;8.27;74.40;98646.53;5005306;28;45375;-69
2023/03/08 05:27:59;;;;;;;;;4.75;4.75;;;;;8.20;74.85;98636.78;5004096;28;46318;-69
2023/03/08 05:30:24;;;;;;;;;5.25;5.25;;;;;8.36;74.29;98658.06;5005853;28;45797;-69
2023/03/08 05:32:49;;;;;;;;;4.00;4.00;;;;;8.22;74.04;98616.38;5009426;28;45366;-69
2023/03/08 05:35:15;;;;;;;;;4.75;4.75;;;;;8.41;74.87;98633.22;5001694;28;47009;-69
2023/03/08 05:37:40;;;;;;;;;8.00;5.75;;;;;8.44;74.88;98640.38;5004874;28;45461;-69
2023/03/08 05:40:06;;;;;;;;;10.75;5.00;;;;;8.43;74.31;98643.91;5006895;28;45929;-69
2023/03/08 05:42:32;;;;;;;;;7.00;4.75;;;;;8.45;74.42;98645.69;4997387;28;45510;-69
2023/03/08 05:44:58;;;;;;;;;6.00;4.50;;;;;8.44;74.46;98622.63;5001430;28;46018;-69
2023/03/08 05:47:23;;;;;;;;;4.00;4.00;;;;;8.54;74.99;98642.16;5013606;28;45560;-70
2023/03/08 05:49:50;;;;;;;;;4.00;4.00;;;;;8.53;75.45;98627.09;5005996;28;45545;-69
2023/03/08 05:52:15;;;;;;;;;4.50;4.00;;;;;8.51;75.59;98615.53;5008336;28;45430;-70
2023/03/08 05:54:40;;;;;;;;;6.00;4.00;;;;;8.54;74.49;98634.16;5013925;28;45124;-70
2023/03/08 05:57:05;;;;;;;;;3.50;3.50;;;;;8.63;75.07;98639.50;5015134;28;45746;-69
2023/03/08 05:59:31;;;;;;;;;3.75;3.75;;;;;8.64;75.33;98646.56;5000860;28;45117;-69
2023/03/08 06:01:56;;;;;;;;;2.25;2.25;;;;;8.63;75.72;98630.66;5016744;28;45273;-69
2023/03/08 06:04:21;;;;;;;;;6.75;6.75;;;;;8.71;75.93;98627.94;5011262;28;45433;-68
2023/03/08 06:06:47;;;;;;;;;4.25;4.25;;;;;8.75;75.76;98633.28;5014192;28;46055;-69
2023/03/08 06:09:12;;;;;;;;;4.00;3.75;;;;;8.80;75.62;98627.97;5007354;28;45410;-68
2023/03/08 06:11:37;;;;;;;;;5.75;5.75;;;;;8.82;76.12;98603.09;5012480;28;45490;-68
2023/03/08 06:14:03;;;;;;;;;4.00;2.00;;;;;8.88;75.54;98654.59;5003405;28;45324;-68
2023/03/08 06:16:28;;;;;;;;;4.75;3.00;;;;;8.90;75.71;98629.72;5009863;28;45751;-69
2023/03/08 06:18:54;;;;;;;;;5.50;5.50;;;;;8.94;76.23;98633.25;5010887;28;58432;-68
2023/03/08 06:21:20;;;;;;;;;5.50;4.00;;;;;8.93;76.20;98621.72;5009426;28;45080;-67
2023/03/08 06:23:46;;;;;;;;;2.75;2.75;;;;;9.07;76.41;98666.09;5006727;28;46244;-67
2023/03/08 06:26:12;;;;;;;;;5.50;3.75;;;;;9.10;75.91;98643.00;5011934;28;45541;-68
2023/03/08 06:28:41;;;;;;;;;5.00;5.00;;;;;9.06;76.50;98649.25;4993807;28;45288;-69
2023/03/08 06:31:09;;;;;;;;;3.75;3.75;;;;;9.18;76.50;98670.53;5015086;28;45162;-68
2023/03/08 06:33:35;;;;;;;;;7.00;6.00;;;;;9.20;76.84;98651.88;5013350;28;45168;-69
2023/03/08 06:36:01;;;;;;;;;8.50;4.00;;;;;9.26;77.45;98656.31;5010715;28;45189;-69
2023/03/08 06:38:29;;;;;;;;;8.25;7.25;;;;;9.25;77.61;98639.41;4996839;28;45439;-69
2023/03/08 06:40:55;;;;;;;;;6.75;4.25;;;;;9.28;77.66;98675.84;5010509;28;45110;-69
2023/03/08 06:43:20;;;;;;;;;7.75;5.00;;;;;9.01;77.86;98603.97;4997572;28;45216;-69
2023/03/08 06:45:46;;;;;;;;;4.50;4.50;;;;;9.33;78.03;98634.97;5009742;28;46774;-67
2023/03/08 06:48:12;;;;;;;;;4.00;4.00;;;;;9.43;77.80;98665.13;4999147;28;45359;-68
2023/03/08 06:50:38;;;;;;;;;4.50;4.00;;;;;9.47;77.52;98658.94;5004240;28;45707;-69
2023/03/08 06:53:03;;;;;;;;;4.50;4.50;;;;;9.54;78.02;98647.34;5009476;28;45258;-69
2023/03/08 06:55:28;;;;;;;;;8.00;5.00;;;;;9.62;78.15;98641.09;4994331;28;46459;-69
2023/03/08 06:57:56;;;;;;;;;7.25;6.25;;;;;9.69;77.57;98635.72;5012914;28;45113;-68
2023/03/08 07:00:22;;;;;;;;;3.00;3.00;;;;;9.73;78.18;98629.50;5016826;28;45935;-68
2023/03/08 07:02:48;;;;;;;;;3.00;2.75;;;;;9.80;78.24;98640.13;5013550;28;45102;-69
2023/03/08 07:05:14;;;;;;;;;6.25;5.00;;;;;9.86;78.30;98632.97;5008481;28;45406;-69
2023/03/08 07:07:41;;;;;;;;;3.50;3.50;;;;;9.92;78.61;98632.94;5015479;28;45184;-67
2023/03/08 07:10:09;;;;;;;;;2.00;2.00;;;;;9.98;78.49;98642.69;5010356;28;45400;-68
2023/03/08 07:12:38;;;;;;;;;5.00;5.00;;;;;9.94;79.00;98620.50;5006323;28;45198;-68
2023/03/08 07:15:05;;;;;;;;;2.00;2.00;;;;;9.89;78.93;98598.28;5009816;28;45498;-68
2023/03/08 07:17:33;;;;;;;;;4.50;2.75;;;;;10.18;78.89;98641.69;4997589;28;45290;-68
2023/03/08 07:19:59;;;;;;;;;7.50;5.75;;;;;10.22;79.29;98632.78;4994655;28;45182;-67
2023/03/08 07:22:24;;;;;;;;;4.00;3.00;;;;;10.31;79.11;98632.72;5009285;28;45350;-70
2023/03/08 07:24:49;;;;;;;;;2.00;2.00;;;;;10.38;79.45;98631.81;4996067;28;45674;-68
2023/03/08 07:27:15;;;;;;;;;6.50;4.00;;;;;10.25;79.00;98592.75;5003201;28;45503;-69
2023/03/08 07:29:40;;;;;;;;;3.00;1.75;;;;;10.51;79.07;98622.81;5010763;28;45285;-69
2023/03/08 07:32:06;;;;;;;;;4.00;3.00;;;;;10.58;79.27;98630.81;5010742;28;45192;-68
2023/03/08 07:34:31;;;;;;;;;5.00;2.00;;;;;10.64;79.08;98639.66;5009250;28;45965;-69
2023/03/08 07:36:56;;;;;;;;;2.00;2.00;;;;;10.68;78.58;98635.16;5015366;28;45073;-68
2023/03/08 07:39:22;;;;;;;;;4.00;2.50;;;;;10.74;79.08;98644.91;4994823;28;45381;-68
2023/03/08 07:41:48;;;;;;;;;1.75;1.75;;;;;10.73;79.59;98637.81;5003663;28;46608;-68
2023/03/08 07:44:14;;;;;;;;;2.25;1.00;;;;;10.83;79.22;98656.38;5009203;28;45686;-69
2023/03/08 07:46:39;;;;;;;;;0.00;0.00;;;;;10.84;78.83;98643.94;5007407;28;45652;-68
2023/03/08 07:49:09;;;;;;;;;2.00;1.50;;;;;10.83;80.01;98627.00;4998568;28;45557;-69
2023/03/08 07:51:35;;;;;;;;;4.75;4.00;;;;;11.01;79.64;98649.13;4998792;28;45478;-68
2023/03/08 07:54:00;;;;;;;;;4.50;2.75;;;;;11.07;79.27;98649.94;4992674;28;46425;-68
2023/03/08 07:56:25;;;;;;;;;1.00;1.00;;;;;11.08;79.69;98618.75;5002241;28;45754;-68
2023/03/08 07:58:51;;;;;;;;;1.50;1.00;;;;;11.23;79.18;98645.31;4993542;28;45580;-67
2023/03/08 08:01:16;;;;;;;;;1.00;1.00;;;;;11.17;78.61;98617.78;5001508;28;45392;-68
2023/03/08 08:03:42;;;;;;;;;1.75;1.75;;;;;11.33;78.66;98638.09;4993421;28;46091;-69
2023/03/08 08:06:08;;;;;;;;;1.75;1.00;;;;;11.45;78.64;98655.81;5000397;28;45443;-69
2023/03/08 08:08:33;;;;;;;;;5.00;3.00;;;;;11.48;78.22;98652.19;4998572;28;45426;-69
2023/03/08 08:10:59;;;;;;;;;4.00;3.25;;;;;11.58;78.00;98660.13;4990071;28;45581;-67
2023/03/08 08:13:24;;;;;;;;;4.25;4.25;;;;;11.69;77.91;98665.31;4990411;28;46329;-67
2023/03/08 08:15:58;;;;;;;;;5.00;4.00;;;;;11.79;78.18;98671.47;4995575;28;45596;-68
2023/03/08 08:18:23;;;;;;;;;5.75;4.00;;;;;11.82;77.80;98668.75;4992821;28;45604;-68
2023/03/08 08:20:48;;;;;;;;;4.00;4.00;;;;;11.89;76.98;98659.72;4993990;28;45667;-68
2023/03/08 08:23:14;;;;;;;;;4.67;3.00;;;;;11.89;77.21;98654.38;4989390;28;46722;-68
2023/03/08 08:25:39;;;;;;;;;4.33;1.67;;;;;12.01;77.07;98663.19;4989466;28;45310;-67
2023/03/08 08:28:04;;;;;;;;;2.00;2.00;;;;;12.01;76.85;98663.19;4987876;28;45621;-67
2023/03/08 08:30:30;;;;;;;;;4.25;2.00;;;;;12.02;76.56;98649.78;4990413;28;45483;-68
2023/03/08 08:32:56;;;;;;;;;5.25;4.00;;;;;12.07;76.25;98655.97;4988380;28;46370;-68
2023/03/08 08:35:22;;;;;;;;;4.33;2.00;;;;;12.19;76.28;98659.38;5002260;28;45440;-67
2023/03/08 08:37:47;;;;;;;;;2.00;2.00;;;;;12.23;76.75;98662.00;5004336;28;46475;-68
2023/03/08 08:40:12;;;;;;;;;3.33;2.33;;;;;12.22;76.40;98668.25;4997361;28;45116;-68
2023/03/08 08:42:38;;;;;;;;;2.75;1.25;;;;;12.29;75.65;98678.00;5016420;28;45594;-68
2023/03/08 08:45:04;;;;;;;;;6.00;3.00;;;;;12.29;75.37;98661.94;5019364;28;45002;-68
2023/03/08 08:47:29;;;;;;;;;4.75;2.50;;;;;12.36;76.40;98684.16;5019225;28;45109;-67
2023/03/08 08:49:54;;;;;;;;;2.50;2.50;;;;;12.06;75.90;98632.81;5013399;28;45431;-68
2023/03/08 08:52:20;;;;;;;;;4.50;2.50;;;;;12.29;76.70;98664.59;5015498;28;45356;-68
2023/03/08 08:54:45;;;;;;;;;1.67;1.33;;;;;12.33;76.84;98678.81;4998396;28;46148;-67
2023/03/08 08:57:10;;;;;;;;;3.00;3.00;;;;;12.38;78.30;98694.84;5008743;28;45229;-67
2023/03/08 08:59:36;;;;;;;;;6.00;4.75;;;;;12.41;77.93;98693.00;5010125;28;45304;-68
2023/03/08 09:02:01;;;;;;;;;4.00;3.00;;;;;12.44;78.02;98692.97;5011441;28;45980;-68
2023/03/08 09:04:27;;;;;;;;;4.00;4.00;;;;;12.45;78.34;98694.69;5009805;28;45277;-68
2023/03/08 09:06:53;;;;;;;;;5.00;3.00;;;;;12.42;78.86;98680.47;5006173;28;45513;-66
2023/03/08 09:09:19;;;;;;;;;5.50;4.00;;;;;12.47;79.16;98681.28;5013229;28;44892;-69
2023/03/08 09:11:46;;;;;;;;;3.33;3.33;;;;;12.51;78.82;98683.03;5009227;28;45600;-69
2023/03/08 09:14:12;;;;;;;;;5.00;2.67;;;;;12.52;78.33;98672.31;5011971;28;45323;-68
2023/03/08 09:16:38;;;;;;;;;5.33;3.00;;;;;12.66;78.51;98681.91;5011412;28;45279;-68
2023/03/08 09:19:04;;;;;;;;;3.33;3.33;;;;;12.75;77.93;98688.91;5008914;28;45125;-68
2023/03/08 09:21:31;;;;;;;;;2.00;2.00;;;;;12.77;77.78;98679.97;5003842;28;47018;-67
2023/03/08 09:24:02;;;;;;;;;0.67;0.00;;;;;12.77;77.66;98663.88;5005936;28;45326;-69
2023/03/08 09:26:32;;;;;;;;;4.00;2.00;;;;;12.96;77.20;98691.25;5008246;28;45246;-68
2023/03/08 09:29:03;;;;;;;;;5.00;1.00;;;;;13.06;76.68;98700.03;5011668;28;45329;-68
2023/03/08 09:31:29;;;;;;;;;4.00;3.00;;;;;13.07;76.05;98691.09;5006027;28;46190;-68
2023/03/08 09:33:55;;;;;;;;;3.25;3.00;;;;;13.19;76.08;98703.41;5008126;28;46056;-67
2023/03/08 09:36:21;;;;;;;;;4.33;2.67;;;;;13.25;75.77;98703.28;5011044;28;45035;-68
2023/03/08 09:38:48;;;;;;;;;3.33;2.00;;;;;13.24;75.15;98697.03;5007606;28;45244;-68
2023/03/08 09:41:33;;;;;;;;;2.33;2.33;;;;;13.34;75.38;98697.78;5011195;28;45180;-70
2023/03/08 09:44:12;;;;;;;;;2.00;2.00;;;;;13.36;75.11;98704.00;5001807;28;45513;-67
2023/03/08 09:46:49;;;;;;;;;2.33;2.00;;;;;13.39;74.21;98700.38;5001264;28;45432;-68
2023/03/08 09:49:27;;;;;;;;;3.33;2.00;;;;;13.30;74.84;98696.06;4997605;28;45535;-69
2023/03/08 09:52:02;;;;;;;;;5.33;3.00;;;;;13.42;74.39;98706.56;5006118;28;45983;-68
2023/03/08 09:54:28;;;;;;;;;7.25;5.00;;;;;13.47;74.51;98703.81;5002721;28;45274;-68
2023/03/08 09:56:55;;;;;;;;;4.67;3.00;;;;;13.50;74.43;98700.22;5003970;28;45301;-68
2023/03/08 09:59:29;;;;;;;;;3.00;2.67;;;;;13.55;73.45;98698.31;5006946;28;45264;-69
2023/03/08 10:01:59;;;;;;;;;2.00;2.00;;;;;13.62;74.17;98716.06;5008809;28;45896;-68
2023/03/08 10:04:58;;;;;;;;;6.00;3.00;;;;;13.71;73.46;98718.59;5011125;28;45373;-65
2023/03/08 10:07:30;;;;;;;;;4.33;4.33;;;;;13.79;73.38;98710.38;5008133;28;45160;-69
2023/03/08 10:10:28;;;;;;;;;5.00;3.00;;;;;13.87;72.88;98721.84;5003538;28;45353;-65
2023/03/08 10:13:03;;;;;;;;;3.33;2.67;;;;;13.92;72.64;98736.03;5012051;28;45609;-69
2023/03/08 10:15:31;;;;;;;;;4.33;4.33;;;;;13.91;72.15;98714.59;5007857;28;45209;-69
2023/03/08 10:18:12;;;;;;;;;2.00;2.00;;;;;14.06;72.02;98726.84;5011449;28;45093;-68
2023/03/08 10:20:39;;;;;;;;;3.00;2.00;;;;;14.13;71.55;98726.69;5010442;28;45381;-67
2023/03/08 10:23:16;;;;;;;;;5.33;3.00;;;;;14.26;71.01;98731.81;5014333;28;45762;-68
2023/03/08 10:25:43;;;;;;;;;5.67;1.00;;;;;14.28;70.74;98716.53;5009805;28;45231;-68
2023/03/08 10:28:13;;;;;;;;;7.00;5.00;;;;;14.39;70.27;98706.44;5011354;28;45202;-69
2023/03/08 10:31:00;;;;;;;;;8.33;6.67;;;;;14.52;69.83;98715.13;5010420;28;44932;-68
2023/03/08 10:33:31;;;;;;;;;6.67;4.67;;;;;14.57;69.69;98708.72;5008733;28;46421;-68
2023/03/08 10:36:08;;;;;;;;;4.00;2.00;;;;;14.68;69.08;98719.28;5001960;28;45028;-69
2023/03/08 10:38:35;;;;;;;;;4.00;2.00;;;;;14.75;68.68;98709.25;4994018;28;45683;-69
2023/03/08 10:41:14;;;;;;;;;5.33;2.33;;;;;14.78;68.19;98711.84;5003891;28;45274;-68
2023/03/08 10:43:45;;;;;;;;;4.00;3.67;;;;;14.86;68.42;98727.81;5007430;28;45894;-67
2023/03/08 10:46:32;;;;;;;;;8.67;3.67;;;;;14.96;67.81;98726.66;5002916;28;44986;-68
2023/03/08 10:49:27;;;;;;;;;5.00;3.00;;;;;15.05;67.60;98734.53;4994198;28;46132;-68
2023/03/08 10:51:58;;;;;;;;;3.00;1.00;;;;;15.03;67.24;98714.84;4983768;28;45376;-67
2023/03/08 10:54:25;;;;;;;;;2.67;1.00;;;;;15.24;67.16;98737.63;5002132;28;45477;-68
2023/03/08 10:56:54;;;;;;;;;3.00;3.00;;;;;15.33;66.63;98739.22;5004063;28;45616;-67
2023/03/08 10:59:31;;;;;;;;;6.67;5.33;;;;;15.34;66.15;98732.91;4992056;28;45597;-68
2023/03/08 11:02:21;;;;;;;;;4.33;3.67;;;;;15.48;66.33;98746.88;5003677;28;45583;-69
2023/03/08 11:04:57;;;;;;;;;4.00;4.00;;;;;15.56;65.63;98745.78;4984736;28;46489;-68
2023/03/08 11:07:28;;;;;;;;;2.33;2.33;;;;;15.62;65.15;98743.84;5008443;28;45076;-68
2023/03/08 11:10:11;;;;;;;;;1.00;1.00;;;;;15.64;65.12;98739.31;4995833;28;45570;-69
2023/03/08 11:12:36;;;;;;;;;3.00;2.00;;;;;15.66;64.74;98741.97;4996439;28;45389;-69
2023/03/08 11:15:12;;;;;;;;;1.33;1.00;;;;;15.72;64.38;98732.81;5004948;28;45770;-69
2023/03/08 11:17:39;;;;;;;;;1.67;1.33;;;;;15.87;64.24;98747.72;4994034;28;45724;-70
2023/03/08 11:20:30;;;;;;;;;3.00;3.00;;;;;15.88;64.97;98744.09;5016215;28;45130;-69
2023/03/08 11:23:14;;;;;;;;;2.00;2.00;;;;;15.89;64.27;98740.47;5000376;28;45428;-69
2023/03/08 11:25:46;;;;;;;;;4.67;3.33;;;;;15.84;65.05;98736.09;5002588;28;45947;-67
2023/03/08 11:28:36;;;;;;;;;3.00;3.00;;;;;15.86;64.64;98727.13;5014344;28;44990;-68
2023/03/08 11:31:26;;;;;;;;;4.33;2.67;;;;;15.94;64.15;98736.75;4997045;28;45234;-69
2023/03/08 11:34:17;;;;;;;;;2.33;2.33;;;;;16.01;64.18;98741.00;5004546;28;45153;-68
2023/03/08 11:36:57;;;;;;;;;2.33;2.00;;;;;16.08;63.70;98733.63;4989873;28;45744;-68